createdAt,value
2018-03-27T06:19:18.150Z,3164
2018-03-27T06:20:18.424Z,3172
2018-03-27T06:21:18.445Z,3204
2018-03-27T06:22:18.181Z,3396
2018-03-27T06:23:18.617Z,3688
2018-03-27T06:24:19.498Z,3784
2018-03-27T06:25:19.350Z,3736
2018-03-27T06:26:19.506Z,3776
2018-03-27T06:27:19.445Z,3676
2018-03-27T06:28:19.638Z,3672
2018-03-27T06:29:20.036Z,3868
2018-03-27T06:30:19.487Z,4100
2018-03-27T06:31:19.528Z,4604
2018-03-27T06:32:19.656Z,4696
2018-03-27T06:33:20.116Z,4732
2018-03-27T06:34:20.548Z,4712
2018-03-27T06:35:20.704Z,5048
2018-03-27T06:36:20.272Z,5548
2018-03-27T06:37:20.565Z,5944
2018-03-27T06:38:20.605Z,6048
2018-03-27T06:39:21.111Z,6208
2018-03-27T06:40:20.770Z,6364
2018-03-27T06:41:21.020Z,6520
2018-03-27T06:42:21.320Z,6676
2018-03-27T06:43:21.002Z,6668
2018-03-27T06:44:21.473Z,6636
2018-03-27T06:45:21.248Z,6672
2018-03-27T06:46:21.409Z,6572
2018-03-27T06:47:21.467Z,6560
2018-03-27T06:48:21.238Z,6568
2018-03-27T06:49:21.764Z,6648
2018-03-27T06:50:21.254Z,6676
2018-03-27T06:51:21.534Z,6808
2018-03-27T06:52:21.948Z,6964
2018-03-27T06:53:21.687Z,6956
2018-03-27T06:54:21.593Z,7184
2018-03-27T06:55:22.246Z,7320
2018-03-27T06:56:22.182Z,7264
2018-03-27T06:57:22.829Z,7236
2018-03-27T06:58:22.982Z,7376
2018-03-27T06:59:23.336Z,7464
2018-03-27T07:00:23.723Z,7496
2018-03-27T07:01:23.569Z,7820
2018-03-27T07:02:24.220Z,8060
2018-03-27T07:03:23.835Z,8368
2018-03-27T07:04:23.429Z,9060
2018-03-27T07:05:23.055Z,9512
2018-03-27T07:06:23.483Z,8836
2018-03-27T07:07:23.555Z,8048
2018-03-27T07:08:23.372Z,8024
2018-03-27T07:09:23.276Z,8780
2018-03-27T07:10:23.279Z,8800
2018-03-27T07:11:23.800Z,8484
2018-03-27T07:12:23.544Z,8968
2018-03-27T07:13:23.542Z,8748
2018-03-27T07:14:23.573Z,8512
2018-03-27T07:15:23.321Z,8604
2018-03-27T07:16:23.826Z,8836
2018-03-27T07:17:24.741Z,8796
2018-03-27T07:18:25.029Z,9092
2018-03-27T07:19:24.288Z,9632
2018-03-27T07:20:23.770Z,10076
2018-03-27T07:21:24.440Z,10476
2018-03-27T07:22:24.617Z,10536
2018-03-27T07:23:24.493Z,9972
2018-03-27T07:24:24.205Z,10252
2018-03-27T07:25:24.324Z,10368
2018-03-27T07:26:25.052Z,10904
2018-03-27T07:27:25.058Z,10780
2018-03-27T07:28:24.712Z,10332
2018-03-27T07:29:25.269Z,10020
2018-03-27T07:30:25.283Z,10260
2018-03-27T07:31:25.606Z,10616
2018-03-27T07:32:26.188Z,10660
2018-03-27T07:33:26.059Z,10420
2018-03-27T07:34:27.168Z,10664
2018-03-27T07:35:27.909Z,11760
2018-03-27T07:36:27.604Z,10588
2018-03-27T07:37:27.085Z,8944
2018-03-27T07:38:27.605Z,10344
2018-03-27T07:39:27.828Z,10996
2018-03-27T07:40:27.982Z,10632
2018-03-27T07:41:27.938Z,10400
2018-03-27T07:42:27.875Z,8532
2018-03-27T07:43:28.104Z,6644
2018-03-27T07:44:27.730Z,5284
2018-03-27T07:45:28.325Z,5556
2018-03-27T07:46:28.425Z,5852
2018-03-27T07:47:28.234Z,6148
2018-03-27T07:48:28.466Z,6536
2018-03-27T07:49:28.830Z,6984
2018-03-27T07:50:28.810Z,6932
2018-03-27T07:51:28.753Z,6724
2018-03-27T07:52:29.388Z,6452
2018-03-27T07:53:29.419Z,6296
2018-03-27T07:54:29.410Z,6384
2018-03-27T07:55:28.920Z,6460
2018-03-27T07:56:29.431Z,6704
2018-03-27T07:57:29.697Z,10272
2018-03-27T07:58:29.151Z,10040
2018-03-27T07:59:29.738Z,9012
2018-03-27T08:00:29.623Z,6520
2018-03-27T08:01:30.085Z,6124
2018-03-27T08:02:30.249Z,6012
2018-03-27T08:03:30.898Z,5704
2018-03-27T08:04:31.176Z,5772
2018-03-27T08:05:31.225Z,6076
2018-03-27T08:06:30.997Z,6432
2018-03-27T08:07:30.806Z,6968
2018-03-27T08:08:30.653Z,8304
2018-03-27T08:09:30.955Z,9652
2018-03-27T08:10:31.196Z,12112
2018-03-27T08:11:31.244Z,13088
2018-03-27T08:12:30.911Z,14304
2018-03-27T08:13:30.976Z,11788
2018-03-27T08:14:30.661Z,13304
2018-03-27T08:15:31.509Z,11800
2018-03-27T08:16:31.414Z,9980
2018-03-27T08:17:30.954Z,9772
2018-03-27T08:18:31.403Z,13112
2018-03-27T08:19:31.603Z,9168
2018-03-27T08:20:31.355Z,9076
2018-03-27T08:21:31.763Z,9444
2018-03-27T08:22:31.303Z,9388
2018-03-27T08:23:31.840Z,9000
2018-03-27T08:24:32.057Z,9188
2018-03-27T08:25:31.685Z,8492
2018-03-27T08:26:31.863Z,10684
2018-03-27T08:27:32.578Z,9060
2018-03-27T08:28:32.474Z,8920
2018-03-27T08:29:33.375Z,9876
2018-03-27T08:30:33.124Z,9160
2018-03-27T08:31:33.229Z,9920
2018-03-27T08:32:33.384Z,8876
2018-03-27T08:33:33.408Z,9688
2018-03-27T08:34:33.583Z,8324
2018-03-27T08:35:33.479Z,8680
2018-03-27T08:36:34.955Z,8924
2018-03-27T08:37:34.094Z,8912
2018-03-27T08:38:34.280Z,8932
2018-03-27T08:39:35.064Z,8692
2018-03-27T08:40:34.823Z,8564
2018-03-27T08:41:34.712Z,8344
2018-03-27T08:42:34.354Z,7920
2018-03-27T08:43:34.569Z,7492
2018-03-27T08:44:35.360Z,7240
2018-03-27T08:45:34.654Z,7088
2018-03-27T08:46:35.061Z,7796
2018-03-27T08:47:35.080Z,7872
2018-03-27T08:48:35.356Z,8504
2018-03-27T08:49:35.373Z,8656
2018-03-27T08:50:35.550Z,8548
2018-03-27T08:51:35.858Z,10872
2018-03-27T08:52:35.444Z,10020
2018-03-27T08:53:35.625Z,13244
2018-03-27T08:54:35.218Z,11412
2018-03-27T08:55:35.369Z,14240
2018-03-27T08:56:35.843Z,14708
2018-03-27T08:57:35.358Z,15968
2018-03-27T08:58:35.315Z,16768
2018-03-27T08:59:36.679Z,17152
2018-03-27T09:00:36.202Z,13388
2018-03-27T09:01:35.956Z,16864
2018-03-27T09:02:36.429Z,14228
2018-03-27T09:03:36.637Z,11896
2018-03-27T09:04:37.005Z,10904
2018-03-27T09:05:36.495Z,10844
2018-03-27T09:06:36.794Z,16832
2018-03-27T09:07:36.576Z,18144
2018-03-27T09:08:37.068Z,14288
2018-03-27T09:09:37.053Z,11456
2018-03-27T09:10:36.962Z,18464
2018-03-27T09:11:37.383Z,17632
2018-03-27T09:12:38.472Z,16096
2018-03-27T09:13:38.633Z,17088
2018-03-27T09:14:38.697Z,16768
2018-03-27T09:15:38.876Z,17504
2018-03-27T09:16:39.139Z,17248
2018-03-27T09:17:39.185Z,16256
2018-03-27T09:18:39.077Z,8012
2018-03-27T09:19:39.507Z,8012
2018-03-27T09:20:39.674Z,7260
2018-03-27T09:21:39.941Z,6744
2018-03-27T09:22:40.029Z,6668
2018-03-27T09:23:40.355Z,7612
2018-03-27T09:24:40.558Z,14196
2018-03-27T09:25:40.480Z,11600
2018-03-27T09:26:40.999Z,10172
2018-03-27T09:27:41.033Z,14600
2018-03-27T09:28:40.649Z,23072
2018-03-27T09:29:41.324Z,24864
2018-03-27T09:30:42.054Z,23232
2018-03-27T09:31:42.097Z,9224
2018-03-27T09:32:42.032Z,7224
2018-03-27T09:33:41.292Z,6672
2018-03-27T09:34:41.086Z,6896
2018-03-27T09:35:41.700Z,19680
2018-03-27T09:36:41.696Z,53152
2018-03-27T09:37:42.150Z,17568
2018-03-27T09:38:42.640Z,17696
2018-03-27T09:39:42.353Z,66752
2018-03-27T09:40:42.690Z,62528
2018-03-27T09:41:42.942Z,60352
2018-03-27T09:42:42.853Z,55680
2018-03-27T09:43:43.154Z,52928
2018-03-27T09:44:43.567Z,61888
2018-03-27T09:45:44.027Z,55872
2018-03-27T09:46:43.816Z,61984
2018-03-27T09:47:44.515Z,63520
2018-03-27T09:48:44.076Z,62144
2018-03-27T09:49:44.759Z,57440
2018-03-27T09:50:44.704Z,55392
2018-03-27T09:51:44.994Z,55104
2018-03-27T09:52:44.722Z,51872
2018-03-27T09:53:45.232Z,44416
2018-03-27T09:54:45.639Z,37408
2018-03-27T09:55:45.226Z,25376
2018-03-27T09:56:45.812Z,28128
2018-03-27T09:57:45.698Z,34560
2018-03-27T09:58:46.495Z,46304
2018-03-27T09:59:46.205Z,41248
2018-03-27T10:00:46.643Z,30176
2018-03-27T10:01:47.366Z,28992
2018-03-27T10:02:47.364Z,33152
2018-03-27T10:03:47.401Z,21760
2018-03-27T10:04:47.901Z,21376
2018-03-27T10:05:47.902Z,31296
2018-03-27T10:06:48.780Z,21600
2018-03-27T10:07:48.752Z,24832
2018-03-27T10:08:48.933Z,23424
2018-03-27T10:09:49.170Z,31712
2018-03-27T10:10:49.404Z,41024
2018-03-27T10:11:49.307Z,20928
2018-03-27T10:12:49.962Z,16544
2018-03-27T10:13:50.231Z,53248
2018-03-27T10:14:50.062Z,44864
2018-03-27T10:15:50.226Z,57856
2018-03-27T10:16:51.267Z,64224
2018-03-27T10:17:50.399Z,64000
2018-03-27T10:18:53.329Z,67136
2018-03-27T10:19:50.758Z,68672
2018-03-27T10:20:51.502Z,64832
2018-03-27T10:21:50.634Z,36896
2018-03-27T10:22:55.024Z,23328
2018-03-27T10:23:50.674Z,21728
2018-03-27T10:24:51.462Z,30336
2018-03-27T10:25:51.234Z,39392
2018-03-27T10:26:51.005Z,68960
2018-03-27T10:27:51.070Z,68512
2018-03-27T10:28:51.432Z,48448
2018-03-27T10:29:51.956Z,17120
2018-03-27T10:30:52.392Z,13388
2018-03-27T10:31:52.030Z,12208
2018-03-27T10:32:52.071Z,14208
2018-03-27T10:33:51.860Z,12916
2018-03-27T10:34:52.399Z,10932
2018-03-27T10:35:54.380Z,12584
2018-03-27T10:36:51.914Z,9100
2018-03-27T10:37:53.311Z,8556
2018-03-27T10:38:52.868Z,8416
2018-03-27T10:39:52.969Z,8500
2018-03-27T10:40:53.321Z,8828
2018-03-27T10:41:53.282Z,9236
2018-03-27T10:42:53.171Z,9192
2018-03-27T10:43:53.149Z,9360
2018-03-27T10:44:52.544Z,10008
2018-03-27T10:45:53.281Z,11528
2018-03-27T10:46:52.958Z,10768
2018-03-27T10:47:53.637Z,11420
2018-03-27T10:48:53.515Z,11688
2018-03-27T10:49:54.492Z,11348
2018-03-27T10:50:54.181Z,11100
2018-03-27T10:51:53.952Z,10888
2018-03-27T10:52:54.070Z,10200
2018-03-27T10:53:54.268Z,8288
2018-03-27T10:54:54.029Z,7724
2018-03-27T10:55:54.964Z,8332
2018-03-27T10:56:53.769Z,8992
2018-03-27T10:57:54.748Z,8700
2018-03-27T10:58:54.781Z,9252
2018-03-27T10:59:54.625Z,8160
2018-03-27T11:00:54.777Z,7300
2018-03-27T11:01:54.998Z,7060
2018-03-27T11:02:55.310Z,6656
2018-03-27T11:03:55.454Z,6188
2018-03-27T11:04:55.363Z,5760
2018-03-27T11:05:55.764Z,5224
2018-03-27T11:06:55.528Z,5088
2018-03-27T11:07:55.944Z,4988
2018-03-27T11:08:55.573Z,4920
2018-03-27T11:09:56.660Z,4972
2018-03-27T11:10:58.334Z,5196
2018-03-27T11:11:58.193Z,5360
2018-03-27T11:12:58.954Z,5480
2018-03-27T11:13:57.700Z,5532
2018-03-27T11:14:56.895Z,5528
2018-03-27T11:15:57.097Z,5468
2018-03-27T11:16:57.588Z,5348
2018-03-27T11:17:57.751Z,5148
2018-03-27T11:18:57.575Z,5024
2018-03-27T11:19:58.156Z,5104
2018-03-27T11:20:57.669Z,5280
2018-03-27T11:21:57.689Z,5316
2018-03-27T11:22:57.983Z,5228
2018-03-27T11:23:58.168Z,5092
2018-03-27T11:24:58.836Z,4856
2018-03-27T11:25:58.861Z,4656
2018-03-27T11:26:59.242Z,4596
2018-03-27T11:27:58.910Z,4600
2018-03-27T11:28:59.456Z,4704
2018-03-27T11:29:59.886Z,4872
2018-03-27T11:31:00.067Z,4944
2018-03-27T11:32:00.165Z,4900
2018-03-27T11:33:00.580Z,4796
2018-03-27T11:34:00.425Z,4708
2018-03-27T11:35:00.462Z,4600
2018-03-27T11:36:00.392Z,4476
2018-03-27T11:37:00.538Z,4380
2018-03-27T11:38:00.976Z,4360
2018-03-27T11:39:01.202Z,4360
2018-03-27T11:40:01.260Z,4364
2018-03-27T11:41:01.730Z,4392
2018-03-27T11:42:01.259Z,4420
2018-03-27T11:43:00.759Z,4460
2018-03-27T11:44:01.124Z,4524
2018-03-27T11:45:01.529Z,4644
2018-03-27T11:46:03.158Z,4712
2018-03-27T11:47:02.208Z,4776
2018-03-27T11:48:03.462Z,4872
2018-03-27T11:49:03.860Z,5016
2018-03-27T11:50:02.778Z,5260
2018-03-27T11:51:03.635Z,5424
2018-03-27T11:52:03.993Z,5588
2018-03-27T11:53:03.402Z,5672
2018-03-27T11:54:03.204Z,5612
2018-03-27T11:55:04.174Z,5556
2018-03-27T11:56:03.767Z,5532
2018-03-27T11:57:03.422Z,5460
2018-03-27T11:58:02.882Z,5348
2018-03-27T11:59:02.458Z,5272
2018-03-27T12:01:03.043Z,5172
2018-03-27T12:02:02.507Z,5128
2018-03-27T12:03:02.660Z,5256
2018-03-27T12:04:02.846Z,5628
2018-03-27T12:05:03.400Z,5808
2018-03-27T12:06:03.606Z,6168
2018-03-27T12:07:02.808Z,6504
2018-03-27T12:08:03.887Z,6736
2018-03-27T12:09:03.690Z,6860
2018-03-27T12:10:03.745Z,6992
2018-03-27T12:11:04.196Z,6860
2018-03-27T12:12:03.857Z,6592
2018-03-27T12:13:04.164Z,6292
2018-03-27T12:14:04.578Z,6136
2018-03-27T12:15:04.669Z,6132
2018-03-27T12:16:05.020Z,6132
2018-03-27T12:17:04.885Z,6176
2018-03-27T12:18:04.646Z,6380
2018-03-27T12:19:04.400Z,6432
2018-03-27T12:20:04.848Z,6344
2018-03-27T12:21:04.511Z,6268
2018-03-27T12:22:05.052Z,6148
2018-03-27T12:23:04.935Z,5836
2018-03-27T12:24:05.746Z,5588
2018-03-27T12:25:05.522Z,5548
2018-03-27T12:26:05.953Z,5576
2018-03-27T12:27:06.002Z,5792
2018-03-27T12:28:06.062Z,5996
2018-03-27T12:29:06.066Z,6036
2018-03-27T12:30:06.079Z,5940
2018-03-27T12:31:05.805Z,5944
2018-03-27T12:32:06.153Z,6080
2018-03-27T12:33:06.540Z,6296
2018-03-27T12:34:06.389Z,6584
2018-03-27T12:35:06.387Z,6848
2018-03-27T12:36:06.594Z,7016
2018-03-27T12:37:06.403Z,7036
2018-03-27T12:38:06.876Z,7036
2018-03-27T12:39:06.987Z,7144
2018-03-27T12:40:07.508Z,7264
2018-03-27T12:41:07.724Z,7424
2018-03-27T12:42:07.952Z,7552
2018-03-27T12:43:08.138Z,7576
2018-03-27T12:44:08.504Z,7568
2018-03-27T12:45:08.192Z,7592
2018-03-27T12:46:07.788Z,7620
2018-03-27T12:47:07.742Z,7704
2018-03-27T12:48:07.842Z,7828
2018-03-27T12:49:08.442Z,7968
2018-03-27T12:50:09.513Z,8000
2018-03-27T12:51:08.698Z,7936
2018-03-27T12:52:09.361Z,7652
2018-03-27T12:53:09.590Z,7224
2018-03-27T12:54:08.640Z,6932
2018-03-27T12:55:09.072Z,6832
2018-03-27T12:56:09.112Z,6912
2018-03-27T12:57:08.858Z,7108
2018-03-27T12:58:08.611Z,7380
2018-03-27T12:59:08.984Z,7416
2018-03-27T13:00:16.069Z,7212
2018-03-27T13:01:16.176Z,6884
2018-03-27T13:02:16.268Z,6644
2018-03-27T13:03:16.095Z,6436
2018-03-27T13:04:16.059Z,6304
2018-03-27T13:05:17.741Z,6248
2018-03-27T13:06:17.011Z,6192
2018-03-27T13:07:16.818Z,6020
2018-03-27T13:08:16.820Z,5836
2018-03-27T13:09:16.966Z,5840
2018-03-27T13:10:18.074Z,5696
2018-03-27T13:11:17.069Z,5648
2018-03-27T13:12:16.937Z,5384
2018-03-27T13:13:17.096Z,5256
2018-03-27T13:14:17.726Z,5164
2018-03-27T13:15:17.531Z,5100
2018-03-27T13:16:17.471Z,5072
2018-03-27T13:17:17.957Z,5004
2018-03-27T13:18:17.369Z,4780
2018-03-27T13:19:17.925Z,4508
2018-03-27T13:20:18.072Z,4268
2018-03-27T13:21:17.829Z,4100
2018-03-27T13:22:18.802Z,3960
2018-03-27T13:23:18.507Z,4000
2018-03-27T13:24:18.468Z,3956
2018-03-27T13:25:18.917Z,4056
2018-03-27T13:26:19.081Z,4216
2018-03-27T13:27:18.900Z,4388
2018-03-27T13:28:19.340Z,4580
2018-03-27T13:29:19.975Z,4864
2018-03-27T13:30:19.621Z,5044
2018-03-27T13:31:19.635Z,5256
2018-03-27T13:32:19.783Z,5456
2018-03-27T13:33:19.832Z,5632
2018-03-27T13:34:20.233Z,5480
2018-03-27T13:35:20.165Z,5180
2018-03-27T13:36:20.426Z,4920
2018-03-27T13:37:20.181Z,4760
2018-03-27T13:38:20.367Z,4568
2018-03-27T13:39:20.703Z,4572
2018-03-27T13:40:20.839Z,4744
2018-03-27T13:41:21.118Z,5016
2018-03-27T13:42:21.135Z,5176
2018-03-27T13:43:21.553Z,5188
2018-03-27T13:44:21.696Z,5088
2018-03-27T13:45:22.239Z,5156
2018-03-27T13:46:22.656Z,5188
2018-03-27T13:47:22.681Z,5108
2018-03-27T13:48:22.598Z,5028
2018-03-27T13:49:22.734Z,5008
2018-03-27T13:50:22.930Z,4996
2018-03-27T13:51:23.355Z,4820
2018-03-27T13:52:23.795Z,4564
2018-03-27T13:53:24.218Z,4276
2018-03-27T13:54:24.948Z,3904
2018-03-27T13:55:24.486Z,3576
2018-03-27T13:56:24.942Z,3340
2018-03-27T13:57:24.755Z,3176
2018-03-27T13:58:25.409Z,3024
2018-03-27T13:59:25.348Z,2888
2018-03-27T14:00:25.474Z,2724
2018-03-27T14:01:25.802Z,2664
2018-03-27T14:02:26.237Z,2660
2018-03-27T14:03:26.256Z,2744
2018-03-27T14:04:25.768Z,2896
2018-03-27T14:05:25.813Z,3036
2018-03-27T14:06:26.366Z,3196
2018-03-27T14:07:26.526Z,3352
2018-03-27T14:08:26.259Z,3420
2018-03-27T14:09:26.845Z,3464
2018-03-27T14:10:26.886Z,3500
2018-03-27T14:11:26.724Z,3448
2018-03-27T14:12:26.420Z,3456
2018-03-27T14:13:26.827Z,3476
2018-03-27T14:14:26.999Z,3424
2018-03-27T14:15:27.025Z,3396
2018-03-27T14:16:27.417Z,3328
2018-03-27T14:17:29.276Z,3236
2018-03-27T14:18:28.570Z,3148
2018-03-27T14:19:28.509Z,3032
2018-03-27T14:20:28.467Z,3072
2018-03-27T14:21:28.533Z,3204
2018-03-27T14:22:28.670Z,3296
2018-03-27T14:23:29.129Z,3320
2018-03-27T14:24:29.119Z,3396
2018-03-27T14:25:29.168Z,3404
2018-03-27T14:26:29.276Z,3380
2018-03-27T14:27:29.207Z,3448
2018-03-27T14:28:30.170Z,3500
2018-03-27T14:29:29.682Z,3560
2018-03-27T14:30:29.834Z,3664
2018-03-27T14:31:29.962Z,3744
2018-03-27T14:32:29.524Z,3744
2018-03-27T14:33:29.674Z,3668
2018-03-27T14:34:30.337Z,3592
2018-03-27T14:35:30.524Z,3540
2018-03-27T14:36:30.296Z,3536
2018-03-27T14:37:30.762Z,3516
2018-03-27T14:38:31.250Z,3496
2018-03-27T14:39:30.415Z,3496
2018-03-27T14:40:31.198Z,3504
2018-03-27T14:41:31.082Z,3492
2018-03-27T14:42:31.387Z,3488
2018-03-27T14:43:31.625Z,3588
2018-03-27T14:44:32.181Z,3604
2018-03-27T14:45:31.914Z,3560
2018-03-27T14:46:32.201Z,3620
2018-03-27T14:47:32.345Z,3552
2018-03-27T14:48:32.944Z,3504
2018-03-27T14:49:32.918Z,3592
2018-03-27T14:50:32.965Z,3720
2018-03-27T14:51:32.968Z,3756
2018-03-27T14:52:33.025Z,3792
2018-03-27T14:53:32.886Z,3756
2018-03-27T14:54:32.544Z,3628
2018-03-27T14:55:32.849Z,3488
2018-03-27T14:56:33.247Z,3344
2018-03-27T14:57:33.308Z,3224
2018-03-27T14:58:34.022Z,3116
2018-03-27T14:59:33.721Z,3044
2018-03-27T15:00:34.111Z,2964
2018-03-27T15:01:34.773Z,2872
2018-03-27T15:02:36.019Z,2804
2018-03-27T15:03:34.909Z,2660
2018-03-27T15:04:34.843Z,2516
2018-03-27T15:05:34.594Z,2428
2018-03-27T15:06:34.890Z,2312
2018-03-27T15:07:35.039Z,2184
2018-03-27T15:08:34.558Z,2132
2018-03-27T15:09:35.044Z,2164
2018-03-27T15:10:35.152Z,2188
2018-03-27T15:11:35.524Z,2224
2018-03-27T15:12:35.668Z,2264
2018-03-27T15:13:35.616Z,2340
2018-03-27T15:14:36.412Z,2324
2018-03-27T15:15:36.177Z,2232
2018-03-27T15:16:36.683Z,2196
2018-03-27T15:17:36.241Z,2300
2018-03-27T15:18:36.712Z,2292
2018-03-27T15:19:36.935Z,2212
2018-03-27T15:20:37.208Z,2072
2018-03-27T15:21:36.980Z,2044
2018-03-27T15:22:37.232Z,2064
2018-03-27T15:23:37.500Z,2112
2018-03-27T15:24:37.185Z,2128
2018-03-27T15:25:37.397Z,2096
2018-03-27T15:26:37.047Z,2012
2018-03-27T15:27:36.862Z,1860
2018-03-27T15:28:37.378Z,1728
2018-03-27T15:29:36.891Z,1760
2018-03-27T15:30:37.427Z,1796
2018-03-27T15:31:37.434Z,1752
2018-03-27T15:32:37.827Z,1736
2018-03-27T15:33:37.544Z,1736
2018-03-27T15:34:37.730Z,1732
2018-03-27T15:35:37.192Z,1724
2018-03-27T15:36:37.729Z,1708
2018-03-27T15:37:37.599Z,1692
2018-03-27T15:38:37.792Z,1624
2018-03-27T15:39:38.171Z,1612
2018-03-27T15:40:37.594Z,1592
2018-03-27T15:41:38.339Z,1544
2018-03-27T15:42:38.365Z,1516
2018-03-27T15:43:38.422Z,1472
2018-03-27T15:44:38.243Z,1488
2018-03-27T15:45:38.840Z,1524
2018-03-27T15:46:38.988Z,1500
2018-03-27T15:47:40.208Z,1464
2018-03-27T15:48:38.924Z,1440
2018-03-27T15:49:39.339Z,1416
2018-03-27T15:50:39.390Z,1416
2018-03-27T15:51:39.753Z,1404
2018-03-27T15:52:40.193Z,1408
2018-03-27T15:53:39.976Z,1388
2018-03-27T15:54:39.401Z,1356
2018-03-27T15:55:40.053Z,1316
2018-03-27T15:56:40.172Z,1280
2018-03-27T15:57:40.034Z,1292
2018-03-27T15:58:40.910Z,1268
2018-03-27T15:59:40.798Z,1256
2018-03-27T16:00:40.807Z,1256
2018-03-27T16:01:41.474Z,1260
2018-03-27T16:02:41.524Z,1280
2018-03-27T16:03:41.551Z,1280
2018-03-27T16:04:41.304Z,1236
2018-03-27T16:05:41.712Z,1232
2018-03-27T16:06:41.825Z,1244
2018-03-27T16:07:42.526Z,1228
2018-03-27T16:08:42.268Z,1212
2018-03-27T16:09:42.957Z,1196
2018-03-27T16:10:42.784Z,1200
2018-03-27T16:11:43.317Z,1184
2018-03-27T16:12:43.199Z,1176
2018-03-27T16:13:43.197Z,1156
2018-03-27T16:14:43.214Z,1128
2018-03-27T16:15:43.070Z,1096
2018-03-27T16:16:43.301Z,1060
2018-03-27T16:17:42.830Z,1028
2018-03-27T16:18:43.265Z,1000
2018-03-27T16:19:43.688Z,976
2018-03-27T16:20:44.615Z,952
2018-03-27T16:21:44.091Z,944
2018-03-27T16:22:44.424Z,936
2018-03-27T16:23:43.925Z,944
2018-03-27T16:24:44.198Z,956
2018-03-27T16:25:45.536Z,968
2018-03-27T16:26:44.661Z,964
2018-03-27T16:27:44.862Z,948
2018-03-27T16:28:45.482Z,928
2018-03-27T16:29:45.399Z,908
2018-03-27T16:30:45.140Z,892
2018-03-27T16:31:45.829Z,872
2018-03-27T16:32:46.003Z,856
2018-03-27T16:33:45.918Z,836
2018-03-27T16:34:46.328Z,820
2018-03-27T16:35:46.986Z,816
2018-03-27T16:36:47.036Z,824
2018-03-27T16:37:47.150Z,844
2018-03-27T16:38:47.547Z,872
2018-03-27T16:39:48.114Z,896
2018-03-27T16:40:47.455Z,908
2018-03-27T16:41:47.811Z,904
2018-03-27T16:42:48.055Z,900
2018-03-27T16:43:48.283Z,896
2018-03-27T16:44:48.626Z,888
2018-03-27T16:45:48.318Z,876
2018-03-27T16:46:49.281Z,856
2018-03-27T16:47:49.107Z,844
2018-03-27T16:48:49.348Z,824
2018-03-27T16:49:49.387Z,796
2018-03-27T16:50:49.530Z,764
2018-03-27T16:51:50.701Z,736
2018-03-27T16:52:50.001Z,708
2018-03-27T16:53:50.508Z,680
2018-03-27T16:54:50.654Z,652
2018-03-27T16:55:50.413Z,620
2018-03-27T16:56:50.415Z,592
2018-03-27T16:57:50.194Z,560
2018-03-27T16:58:50.768Z,528
2018-03-27T16:59:51.185Z,504
2018-03-27T17:00:50.955Z,488
2018-03-27T17:01:51.550Z,468
2018-03-27T17:02:51.745Z,452
2018-03-27T17:03:52.178Z,440
2018-03-27T17:04:52.083Z,424
2018-03-27T17:05:52.396Z,412
2018-03-27T17:06:53.137Z,396
2018-03-27T17:07:52.079Z,380
2018-03-27T17:08:52.404Z,360
2018-03-27T17:09:53.439Z,344
2018-03-27T17:10:52.612Z,328
2018-03-27T17:11:53.068Z,308
2018-03-27T17:12:53.101Z,288
2018-03-27T17:13:54.022Z,272
2018-03-27T17:14:54.519Z,252
2018-03-27T17:15:53.332Z,236
2018-03-27T17:16:53.106Z,224
2018-03-27T17:17:53.624Z,208
2018-03-27T17:18:53.231Z,196
2018-03-27T17:19:53.882Z,180
2018-03-27T17:20:54.010Z,168
2018-03-27T17:21:54.016Z,156
2018-03-27T17:22:54.719Z,144
2018-03-27T17:23:53.374Z,128
2018-03-27T17:24:53.949Z,120
2018-03-27T17:25:54.065Z,112
2018-03-27T17:26:54.346Z,100
2018-03-27T17:27:54.707Z,92
2018-03-27T17:28:55.572Z,88
2018-03-27T17:29:54.869Z,80
2018-03-27T17:30:55.141Z,76
2018-03-27T17:31:54.815Z,72
2018-03-27T17:32:54.596Z,64
2018-03-27T17:33:54.463Z,60
2018-03-27T17:34:55.025Z,52
2018-03-27T17:35:55.510Z,48
2018-03-27T17:36:56.056Z,44
2018-03-27T17:37:55.510Z,40
2018-03-27T17:38:56.186Z,36
2018-03-27T17:39:55.621Z,32
2018-03-27T17:40:55.714Z,28
2018-03-27T17:41:56.604Z,24
2018-03-27T17:42:56.406Z,20
2018-03-27T17:43:55.951Z,16
2018-03-27T17:44:56.539Z,16
2018-03-27T17:45:56.603Z,12
2018-03-27T17:46:57.358Z,12
2018-03-27T17:47:56.990Z,8
2018-03-27T17:48:57.399Z,8
2018-03-27T17:49:57.196Z,8
2018-03-27T17:50:57.304Z,4
2018-03-27T17:51:57.981Z,8
2018-03-27T17:52:58.930Z,4
2018-03-27T17:53:59.105Z,4
2018-03-27T17:54:58.228Z,4
2018-03-27T17:55:58.661Z,0
2018-03-27T17:56:58.934Z,0
2018-03-27T17:57:59.316Z,4
2018-03-27T17:58:58.911Z,4
2018-03-27T17:59:59.522Z,0
2018-03-27T18:01:00.434Z,0
2018-03-27T18:02:01.038Z,0
2018-03-27T18:03:01.423Z,0
2018-03-27T18:04:04.482Z,0
